Time;durP1;ratioP1;P1;durP2;ratioP2;P2;SDS_P1;SDS_P2;PMS_P1;PMS_P2;Temp;Humidity;BMP_temperature;BMP_pressure;BME280_temperature;BME280_humidity;BME280_pressure;Samples;Min_cycle;Max_cycle;Signal;HPM_P1;HPM_P2
2021/06/06 00:01:58;;;;;;;10.67;9.00;;;;;;;16.64;100.00;155635.84;5052392;28;20454;-88
2021/06/06 00:04:39;;;;;;;8.97;7.80;;;;;;;16.61;100.00;155628.03;5058081;28;20422;-88
2021/06/06 00:07:14;;;;;;;10.10;8.50;;;;;;;16.57;100.00;155618.97;5091361;28;20565;-88
2021/06/06 00:09:49;;;;;;;8.40;7.57;;;;;;;16.61;100.00;155628.03;5088958;28;20537;-88
2021/06/06 00:12:25;;;;;;;8.10;7.00;;;;;;;16.58;100.00;155621.53;5104475;28;20442;-88
2021/06/06 00:15:00;;;;;;;9.50;8.07;;;;;;;16.57;100.00;155617.66;5070522;28;20778;-88
2021/06/06 00:17:36;;;;;;;8.33;7.50;;;;;;;16.58;100.00;155621.53;5067609;28;20849;-88
2021/06/06 00:20:14;;;;;;;9.03;7.73;;;;;;;16.61;100.00;155629.34;5072170;28;20430;-88
2021/06/06 00:22:49;;;;;;;11.07;8.17;;;;;;;16.56;100.00;155616.34;5095649;28;20458;-88
2021/06/06 00:25:25;;;;;;;10.90;7.90;;;;;;;16.59;100.00;155624.16;5059287;28;20981;-88
2021/06/06 00:28:00;;;;;;;8.23;7.23;;;;;;;16.56;100.00;155615.03;5070007;28;20798;-88
2021/06/06 00:30:36;;;;;;;10.60;7.70;;;;;;;16.52;100.00;155604.59;5070405;28;20836;-88
2021/06/06 00:33:11;;;;;;;8.20;6.93;;;;;;;16.51;100.00;155603.28;5066538;28;20477;-88
2021/06/06 00:35:47;;;;;;;7.90;7.10;;;;;;;16.52;100.00;155605.88;5073188;28;20538;-88
2021/06/06 00:38:22;;;;;;;7.27;6.23;;;;;;;16.48;100.00;155595.47;5083758;28;20483;-88
2021/06/06 00:40:59;;;;;;;10.47;7.30;;;;;;;16.43;100.00;155582.47;5041092;28;20435;-88
2021/06/06 00:43:35;;;;;;;7.53;6.77;;;;;;;16.47;100.00;155592.88;5053171;28;20438;-88
2021/06/06 00:46:12;;;;;;;8.93;6.97;;;;;;;16.51;100.00;155603.28;5084833;28;20450;-89
2021/06/06 00:48:47;;;;;;;7.00;6.30;;;;;;;16.45;100.00;155587.66;5061231;28;20441;-89
2021/06/06 00:51:29;;;;;;;8.57;6.50;;;;;;;16.47;100.00;155592.88;5068584;28;20473;-89
2021/06/06 00:54:08;;;;;;;9.10;7.30;;;;;;;16.46;100.00;155590.28;5051873;28;20473;-89
2021/06/06 00:56:46;;;;;;;8.30;7.40;;;;;;;16.41;100.00;155577.28;5064153;28;20843;-89
2021/06/06 00:59:24;;;;;;;7.30;6.60;;;;;;;16.40;100.00;155574.66;5051177;28;20887;-88
2021/06/06 01:01:58;;;;;;;7.40;6.60;;;;;;;16.37;100.00;155566.84;5071068;28;20842;-88
2021/06/06 01:04:34;;;;;;;7.60;6.40;;;;;;;16.38;100.00;155569.47;5048314;28;20473;-88
2021/06/06 01:07:12;;;;;;;8.17;7.00;;;;;;;16.36;100.00;155565.56;5071964;28;20542;-89
2021/06/06 01:09:50;;;;;;;9.43;6.70;;;;;;;16.35;100.00;155561.66;5055815;28;20442;-89
2021/06/06 01:12:29;;;;;;;7.50;6.80;;;;;;;16.34;100.00;155559.06;5053430;28;20450;-89
2021/06/06 01:15:17;;;;;;;7.57;6.77;;;;;;;16.29;100.00;155547.34;5066789;28;20446;-89
2021/06/06 01:18:02;;;;;;;6.83;6.07;;;;;;;16.31;100.00;155551.25;5107766;28;20461;-89
2021/06/06 01:20:49;;;;;;;7.27;6.57;;;;;;;16.33;100.00;155556.47;5091961;28;20446;-89
2021/06/06 01:23:36;;;;;;;8.77;7.23;;;;;;;16.26;100.00;155539.56;5073129;28;20474;-89
2021/06/06 01:26:19;;;;;;;7.30;6.37;;;;;;;16.27;100.00;155540.84;5057833;28;20545;-89
2021/06/06 01:28:59;;;;;;;9.77;6.80;;;;;;;16.27;100.00;155540.84;5074732;28;20831;-89
2021/06/06 01:31:38;;;;;;;7.40;6.70;;;;;;;16.24;100.00;155534.34;5057830;28;20813;-89
2021/06/06 01:34:17;;;;;;;7.60;6.80;;;;;;;16.22;100.00;155527.84;5044482;28;20585;-88
2021/06/06 01:36:55;;;;;;;7.77;6.83;;;;;;;16.20;100.00;155523.94;5076590;28;20443;-89
2021/06/06 01:39:38;;;;;;;6.80;6.10;;;;;;;16.18;100.00;155517.44;5096755;28;20449;-88
2021/06/06 01:42:17;;;;;;;7.43;6.23;;;;;;;16.17;100.00;155516.16;5100405;28;20430;-89
2021/06/06 01:44:56;;;;;;;7.70;6.90;;;;;;;16.15;100.00;155509.66;5101217;28;20444;-88
2021/06/06 01:47:33;;;;;;;7.20;6.50;;;;;;;16.17;100.00;155514.88;5057655;28;20797;-89
2021/06/06 01:50:13;;;;;;;7.10;6.03;;;;;;;16.13;100.00;155505.75;5073745;28;20437;-89
2021/06/06 01:52:49;;;;;;;7.90;7.10;;;;;;;16.16;100.00;155513.53;5050092;28;20457;-90
2021/06/06 01:55:28;;;;;;;10.60;6.23;;;;;;;16.16;100.00;155513.53;5060350;28;20438;-89
2021/06/06 01:58:07;;;;;;;8.20;6.27;;;;;;;16.15;100.00;155509.66;5048229;28;20784;-89
2021/06/06 02:00:57;;;;;;;6.97;6.27;;;;;;;16.14;100.00;155508.38;5057298;28;20502;-89
2021/06/06 02:03:40;;;;;;;7.10;6.40;;;;;;;16.12;100.00;155503.16;5059045;28;20458;-89
2021/06/06 02:06:26;;;;;;;6.77;6.13;;;;;;;16.11;100.00;155500.56;5075969;28;20449;-89
2021/06/06 02:09:04;;;;;;;8.30;5.93;;;;;;;16.09;100.00;155494.06;5074135;28;20526;-89
2021/06/06 02:11:44;;;;;;;7.00;5.87;;;;;;;16.09;100.00;155494.06;5072938;28;20442;-89
2021/06/06 02:14:25;;;;;;;7.57;6.00;;;;;;;16.06;100.00;155486.25;5042674;28;20466;-89
2021/06/06 02:17:15;;;;;;;6.43;5.73;;;;;;;16.07;100.00;155488.88;5077792;28;20451;-89
2021/06/06 02:20:06;;;;;;;6.40;5.80;;;;;;;16.04;100.00;155482.38;5074681;28;20536;-88
2021/06/06 02:22:41;;;;;;;6.07;5.47;;;;;;;15.99;100.00;155468.06;5057411;28;20442;-89
2021/06/06 02:25:17;;;;;;;6.97;5.63;;;;;;;15.99;100.00;155469.31;5091499;28;20478;-89
2021/06/06 02:28:05;;;;;;;6.73;5.70;;;;;;;15.97;100.00;155462.81;5070792;28;20936;-89
2021/06/06 02:30:51;;;;;;;8.80;6.67;;;;;;;15.94;100.00;155455.06;5090052;28;20477;-89
2021/06/06 02:33:31;;;;;;;6.83;5.93;;;;;;;15.93;100.00;155453.75;5073670;28;20962;-89
2021/06/06 02:36:15;;;;;;;6.83;6.13;;;;;;;15.96;100.00;155460.25;5038096;28;20783;-89
2021/06/06 02:38:53;;;;;;;7.00;5.40;;;;;;;15.94;100.00;155455.06;5059640;28;20811;-89
2021/06/06 02:41:32;;;;;;;7.43;6.43;;;;;;;15.90;100.00;155444.63;5092061;28;20438;-89
2021/06/06 02:44:14;;;;;;;8.10;6.10;;;;;;;15.86;100.00;155434.25;5070880;28;20541;-89
2021/06/06 02:46:54;;;;;;;6.47;5.80;;;;;;;15.91;100.00;155447.25;5086157;28;20454;-89
2021/06/06 02:49:36;;;;;;;6.53;5.40;;;;;;;15.89;100.00;155443.31;5045683;28;20468;-89
2021/06/06 02:52:16;;;;;;;7.10;6.10;;;;;;;15.90;100.00;155444.63;5066609;28;20450;-89
2021/06/06 02:54:58;;;;;;;6.30;5.63;;;;;;;15.90;100.00;155444.63;5047608;28;20470;-89
2021/06/06 02:57:49;;;;;;;7.10;6.40;;;;;;;15.84;100.00;155431.63;5050664;28;20807;-89
2021/06/06 03:00:29;;;;;;;7.40;6.53;;;;;;;15.87;100.00;155436.81;5059783;28;20426;-89
2021/06/06 03:03:10;;;;;;;6.53;5.20;;;;;;;15.86;100.00;155435.50;5056440;28;20457;-89
2021/06/06 03:05:46;;;;;;;6.20;5.00;;;;;;;15.89;100.00;155442.00;5052792;28;20805;-89
2021/06/06 03:08:23;;;;;;;6.50;5.80;;;;;;;15.82;100.00;155426.44;5059002;28;20445;-89
2021/06/06 03:11:03;;;;;;;6.63;5.57;;;;;;;15.87;100.00;155438.13;5053812;28;20462;-89
2021/06/06 03:13:41;;;;;;;7.03;5.50;;;;;;;15.88;100.00;155439.44;5086087;28;20477;-89
2021/06/06 03:16:17;;;;;;;7.63;5.87;;;;;;;15.84;100.00;155431.63;5074577;28;20464;-89
2021/06/06 03:19:00;;;;;;;7.33;5.90;;;;;;;15.83;100.00;155429.03;5062732;28;20450;-89
2021/06/06 03:21:40;;;;;;;6.23;5.33;;;;;;;15.81;100.00;155423.81;5036437;28;20446;-89
2021/06/06 03:24:19;;;;;;;6.40;4.80;;;;;;;15.84;100.00;155430.31;5069892;28;20446;-89
2021/06/06 03:27:00;;;;;;;6.97;5.13;;;;;;;15.72;100.00;155400.47;5069494;28;20696;-89
2021/06/06 03:29:49;;;;;;;7.30;5.70;;;;;;;15.71;100.00;155397.84;5052536;28;20474;-89
2021/06/06 03:32:30;;;;;;;8.07;5.40;;;;;;;15.68;100.00;155390.03;5042116;28;20927;-89
2021/06/06 03:35:09;;;;;;;6.53;5.80;;;;;;;15.75;100.00;155406.97;5061074;28;20956;-89
2021/06/06 03:37:46;;;;;;;7.13;6.00;;;;;;;15.73;100.00;155403.03;5069476;28;20482;-89
2021/06/06 03:40:32;;;;;;;6.87;5.97;;;;;;;15.72;100.00;155400.47;5046969;28;20459;-89
2021/06/06 03:43:18;;;;;;;7.70;5.73;;;;;;;15.65;100.00;155382.22;5084985;28;20437;-89
2021/06/06 03:45:53;;;;;;;8.33;6.30;;;;;;;15.65;100.00;155380.91;5053537;28;20437;-89
2021/06/06 03:48:30;;;;;;;10.10;6.50;;;;;;;15.66;100.00;155384.84;5083019;28;20458;-89
2021/06/06 03:51:08;;;;;;;6.40;5.50;;;;;;;15.67;100.00;155386.16;5047000;28;20782;-89
2021/06/06 03:53:46;;;;;;;8.17;6.20;;;;;;;15.61;100.00;155371.84;5065050;28;20470;-89
2021/06/06 03:56:21;;;;;;;8.57;6.47;;;;;;;15.65;100.00;155382.22;5072082;28;20595;-88
2021/06/06 03:58:58;;;;;;;8.50;7.43;;;;;;;15.65;100.00;155380.91;5071725;28;20453;-89
2021/06/06 04:01:34;;;;;;;11.60;7.80;;;;;;;15.59;100.00;155365.34;5074266;28;20445;-89
2021/06/06 04:04:09;;;;;;;7.80;6.40;;;;;;;15.56;100.00;155358.84;5068930;28;20528;-89
2021/06/06 04:06:46;;;;;;;8.10;6.40;;;;;;;15.55;100.00;155356.25;5062535;28;20844;-89
2021/06/06 04:09:23;;;;;;;9.70;7.07;;;;;;;15.54;100.00;155352.38;5053731;28;20866;-89
2021/06/06 04:11:59;;;;;;;12.43;8.10;;;;;;;15.51;100.00;155344.56;5055298;28;20449;-89
2021/06/06 04:14:37;;;;;;;10.83;7.30;;;;;;;15.50;100.00;155343.25;5080433;28;20530;-89
2021/06/06 04:17:12;;;;;;;10.47;7.03;;;;;;;15.50;100.00;155343.25;5060013;28;20467;-89
2021/06/06 04:19:53;;;;;;;13.97;7.70;;;;;;;15.48;100.00;155338.06;5071204;28;20448;-89
2021/06/06 04:22:29;;;;;;;9.50;7.07;;;;;;;15.44;100.00;155326.28;5058595;28;20452;-89
2021/06/06 04:25:09;;;;;;;9.10;7.03;;;;;;;15.49;100.00;155339.38;5081121;28;20805;-89
2021/06/06 04:27:46;;;;;;;12.60;8.17;;;;;;;15.45;100.00;155330.19;5084535;28;20452;-89
2021/06/06 04:30:23;;;;;;;11.10;7.50;;;;;;;15.45;100.00;155330.19;5071272;28;20789;-89
2021/06/06 04:33:06;;;;;;;12.80;8.63;;;;;;;15.47;100.00;155335.44;5080221;28;20445;-89
2021/06/06 04:35:44;;;;;;;9.40;7.80;;;;;;;15.47;100.00;155335.44;5084353;28;20453;-89
2021/06/06 04:38:24;;;;;;;10.10;7.07;;;;;;;15.47;100.00;155335.44;5082912;28;20457;-89
2021/06/06 04:41:04;;;;;;;9.23;7.43;;;;;;;15.50;100.00;155343.25;5069787;28;20438;-89
2021/06/06 04:43:41;;;;;;;9.47;7.50;;;;;;;15.44;100.00;155327.59;5054945;28;20447;-89
2021/06/06 04:46:16;;;;;;;11.90;8.10;;;;;;;15.50;100.00;155343.25;5072892;28;20476;-89
2021/06/06 04:48:53;;;;;;;9.97;7.30;;;;;;;15.43;100.00;155325.00;5042897;28;20453;-89
2021/06/06 04:51:32;;;;;;;12.40;7.93;;;;;;;15.44;100.00;155326.28;5068930;28;20443;-89
2021/06/06 04:54:20;;;;;;;11.67;7.70;;;;;;;15.41;100.00;155319.78;5054084;28;20452;-89
2021/06/06 04:56:56;;;;;;;9.17;7.20;;;;;;;15.45;100.00;155330.19;5090194;28;20441;-89
2021/06/06 04:59:37;;;;;;;11.27;8.00;;;;;;;15.40;100.00;155317.22;5039437;28;20453;-89
2021/06/06 05:02:12;;;;;;;11.20;8.53;;;;;;;15.43;100.00;155325.00;5074905;28;20433;-92
2021/06/06 05:04:54;;;;;;;11.97;7.43;;;;;;;15.43;100.00;155325.00;5085328;28;20539;-93
2021/06/06 05:07:29;;;;;;;10.97;7.30;;;;;;;15.43;100.00;155325.00;5082689;28;20464;-93
2021/06/06 05:10:09;;;;;;;9.63;6.47;;;;;;;15.44;100.00;155326.28;5060257;28;20443;-94
2021/06/06 05:12:44;;;;;;;12.60;8.10;;;;;;;15.39;100.00;155314.59;5075914;28;20460;-94
2021/06/06 05:15:22;;;;;;;8.73;7.10;;;;;;;15.44;100.00;155326.28;5059819;28;20457;-93
2021/06/06 05:17:58;;;;;;;11.80;8.50;;;;;;;15.44;100.00;155326.28;5058003;28;20457;-92
2021/06/06 05:20:36;;;;;;;11.50;9.07;;;;;;;15.36;100.00;155306.78;5079231;28;20440;-91
2021/06/06 05:23:12;;;;;;;10.77;8.53;;;;;;;15.38;100.00;155310.72;5052170;28;20519;-90
2021/06/06 05:25:49;;;;;;;14.07;8.77;;;;;;;15.37;100.00;155309.41;5073241;28;20472;-90
2021/06/06 05:28:26;;;;;;;11.67;8.20;;;;;;;15.39;100.00;155314.59;5068321;28;20446;-90
2021/06/06 05:31:01;;;;;;;12.40;8.63;;;;;;;15.37;100.00;155308.09;5054982;28;20457;-90
2021/06/06 05:33:37;;;;;;;15.73;9.93;;;;;;;15.35;100.00;155302.91;5075556;28;20481;-90
2021/06/06 05:36:14;;;;;;;12.93;9.50;;;;;;;15.27;100.00;155283.44;5036919;28;20970;-89
2021/06/06 05:38:49;;;;;;;10.20;7.67;;;;;;;15.33;100.00;155297.72;5091344;28;20445;-90
2021/06/06 05:41:26;;;;;;;10.17;7.93;;;;;;;15.29;100.00;155288.63;5065530;28;20828;-90
2021/06/06 05:44:01;;;;;;;12.20;9.03;;;;;;;15.30;100.00;155291.22;5106061;28;20446;-89
2021/06/06 05:46:37;;;;;;;10.70;8.30;;;;;;;15.29;100.00;155287.31;5065869;28;20865;-89
2021/06/06 05:49:12;;;;;;;14.50;8.47;;;;;;;15.24;100.00;155275.63;5054111;28;20439;-89
2021/06/06 05:51:47;;;;;;;13.80;9.23;;;;;;;15.25;100.00;155278.19;5052795;28;20461;-89
2021/06/06 05:54:27;;;;;;;13.20;9.57;;;;;;;15.29;100.00;155288.63;5096794;28;20612;-89
2021/06/06 05:57:05;;;;;;;9.97;8.20;;;;;;;15.37;100.00;155308.09;5062529;28;20460;-89
2021/06/06 05:59:40;;;;;;;11.97;9.50;;;;;;;15.28;100.00;155286.00;5054243;28;20414;-89
2021/06/06 06:02:15;;;;;;;11.93;9.70;;;;;;;15.27;100.00;155284.69;5075927;28;20461;-89
2021/06/06 06:04:50;;;;;;;13.83;9.60;;;;;;;15.25;100.00;155279.50;5059099;28;20448;-89
2021/06/06 06:07:25;;;;;;;13.00;9.97;;;;;;;15.20;100.00;155266.50;5058823;28;20445;-89
2021/06/06 06:10:01;;;;;;;13.70;10.17;;;;;;;15.24;100.00;155275.63;5052471;28;20512;-89
2021/06/06 06:12:38;;;;;;;10.30;9.00;;;;;;;15.27;100.00;155283.44;5052677;28;20451;-89
2021/06/06 06:15:14;;;;;;;11.03;8.70;;;;;;;15.30;100.00;155289.91;5047192;28;20491;-89
2021/06/06 06:17:49;;;;;;;13.63;9.93;;;;;;;15.26;100.00;155280.81;5073923;28;20523;-88
2021/06/06 06:20:24;;;;;;;10.93;9.50;;;;;;;15.30;100.00;155291.22;5052490;28;20442;-89
2021/06/06 06:23:00;;;;;;;12.93;8.63;;;;;;;15.27;100.00;155283.44;5057354;28;20447;-88
2021/06/06 06:25:35;;;;;;;12.27;10.07;;;;;;;15.28;100.00;155286.00;5105897;28;20826;-88
2021/06/06 06:28:12;;;;;;;12.40;8.47;;;;;;;15.25;100.00;155278.19;5069925;28;20452;-89
2021/06/06 06:30:59;;;;;;;11.60;9.40;;;;;;;15.24;100.00;155276.94;5071517;28;20449;-93
2021/06/06 06:33:42;;;;;;;10.33;8.40;;;;;;;15.15;100.00;155252.22;5072388;28;20500;-93
2021/06/06 06:36:20;;;;;;;9.57;8.10;;;;;;;15.24;100.00;155275.63;5088160;28;20883;-93
2021/06/06 06:38:55;;;;;;;9.77;8.23;;;;;;;15.26;100.00;155280.81;5054533;28;20547;-91
2021/06/06 06:41:31;;;;;;;9.70;8.47;;;;;;;15.22;100.00;155270.44;5071028;28;20445;-91
2021/06/06 06:44:19;;;;;;;9.57;8.60;;;;;;;15.27;100.00;155282.13;5051642;28;20552;-76
2021/06/06 06:46:55;;;;;;;12.33;8.37;;;;;;;15.22;100.00;155270.44;5054347;28;20978;-76
2021/06/06 06:49:31;;;;;;;9.43;8.30;;;;;;;15.30;100.00;155291.22;5052131;28;20554;-76
2021/06/06 06:52:07;;;;;;;12.63;9.10;;;;;;;15.22;100.00;155270.44;5054156;28;20463;-76
2021/06/06 06:54:42;;;;;;;10.43;8.40;;;;;;;15.25;100.00;155278.19;5100911;28;20817;-76
2021/06/06 06:57:18;;;;;;;11.30;7.80;;;;;;;15.25;100.00;155278.19;5100214;28;20923;-78
2021/06/06 06:59:54;;;;;;;11.10;9.33;;;;;;;15.29;100.00;155288.63;5070080;28;20420;-76
2021/06/06 07:02:29;;;;;;;10.47;8.53;;;;;;;15.29;100.00;155288.63;5101203;28;20787;-76
2021/06/06 07:05:06;;;;;;;9.90;7.93;;;;;;;15.29;100.00;155288.63;5088990;28;20480;-76
2021/06/06 07:07:41;;;;;;;10.33;8.30;;;;;;;15.24;100.00;155275.63;5053032;28;20446;-76
2021/06/06 07:10:19;;;;;;;10.33;8.37;;;;;;;15.20;100.00;155265.19;5071370;28;20420;-76
2021/06/06 07:12:54;;;;;;;10.83;9.30;;;;;;;15.20;100.00;155265.19;5071515;28;20452;-78
2021/06/06 07:15:31;;;;;;;10.07;8.57;;;;;;;15.29;100.00;155288.63;5103101;28;20472;-77
2021/06/06 07:18:07;;;;;;;12.10;9.23;;;;;;;15.24;100.00;155275.63;5039794;28;20456;-76
2021/06/06 07:20:42;;;;;;;11.30;9.50;;;;;;;15.29;100.00;155288.63;5089943;28;20449;-76
2021/06/06 07:23:18;;;;;;;12.20;8.40;;;;;;;15.27;100.00;155284.69;5105042;28;20462;-76
2021/06/06 07:25:55;;;;;;;11.97;9.50;;;;;;;15.27;100.00;155283.44;5092146;28;20507;-76
2021/06/06 07:28:31;;;;;;;10.37;9.27;;;;;;;15.33;100.00;155298.97;5055715;28;20457;-77
2021/06/06 07:31:07;;;;;;;11.83;9.83;;;;;;;15.34;100.00;155301.59;5065975;28;20446;-76
2021/06/06 07:33:43;;;;;;;12.73;9.97;;;;;;;15.28;100.00;155286.00;5070123;28;20468;-76
2021/06/06 07:36:20;;;;;;;10.00;8.97;;;;;;;15.39;100.00;155314.59;5061309;28;20862;-76
2021/06/06 07:38:55;;;;;;;11.27;8.90;;;;;;;15.37;100.00;155309.41;5057817;28;20573;-76
2021/06/06 07:41:30;;;;;;;11.50;9.30;;;;;;;15.33;100.00;155298.97;5051393;28;20444;-76
2021/06/06 07:44:06;;;;;;;12.93;9.60;;;;;;;15.36;100.00;155306.78;5052662;28;20448;-76
2021/06/06 07:46:42;;;;;;;14.40;9.93;;;;;;;15.39;100.00;155314.59;5052230;28;20448;-76
2021/06/06 07:49:17;;;;;;;10.63;9.40;;;;;;;15.37;100.00;155309.41;5098199;28;20531;-76
2021/06/06 07:51:52;;;;;;;11.33;9.20;;;;;;;15.40;100.00;155317.22;5056381;28;20439;-76
2021/06/06 07:54:27;;;;;;;12.70;9.73;;;;;;;15.43;100.00;155325.00;5104186;28;20813;-76
2021/06/06 07:57:04;;;;;;;12.97;9.70;;;;;;;15.40;100.00;155317.22;5042997;28;20452;-76
2021/06/06 07:59:39;;;;;;;14.57;10.60;;;;;;;15.40;100.00;155317.22;5051353;28;20442;-76
2021/06/06 08:02:16;;;;;;;12.87;10.57;;;;;;;15.39;100.00;155314.59;5052131;28;20445;-76
2021/06/06 08:04:52;;;;;;;14.83;10.03;;;;;;;15.28;100.00;155286.00;5036164;28;20830;-75
2021/06/06 08:07:28;;;;;;;14.70;11.17;;;;;;;15.33;100.00;155298.97;5037545;28;20458;-75
2021/06/06 08:10:05;;;;;;;15.33;10.90;;;;;;;15.27;100.00;155283.44;5087650;28;20537;-76
2021/06/06 08:12:40;;;;;;;14.20;10.37;;;;;;;15.34;100.00;155300.28;5060903;28;20800;-76
2021/06/06 08:15:16;;;;;;;16.00;11.60;;;;;;;15.33;100.00;155298.97;5066243;28;20471;-75
2021/06/06 08:17:52;;;;;;;17.50;13.00;;;;;;;15.27;100.00;155284.69;5056599;28;20452;-76
2021/06/06 08:20:30;;;;;;;15.40;11.00;;;;;;;15.32;100.00;155296.41;5058310;28;20441;-76
2021/06/06 08:23:07;;;;;;;16.43;10.50;;;;;;;15.26;100.00;155280.81;5075010;28;20443;-76
2021/06/06 08:25:43;;;;;;;15.47;11.70;;;;;;;15.27;100.00;155283.44;5060297;28;20555;-76
2021/06/06 08:28:19;;;;;;;14.10;10.60;;;;;;;15.27;100.00;155282.13;5075520;28;20892;-76
2021/06/06 08:30:56;;;;;;;16.17;11.53;;;;;;;15.30;100.00;155291.22;5055110;28;20777;-76
2021/06/06 08:33:35;;;;;;;11.80;9.70;;;;;;;15.27;100.00;155283.44;5054600;28;20522;-76
2021/06/06 08:36:12;;;;;;;14.00;10.30;;;;;;;15.33;100.00;155298.97;5066297;28;20453;-75
2021/06/06 08:38:48;;;;;;;12.80;9.87;;;;;;;15.38;100.00;155310.72;5073714;28;20452;-76
2021/06/06 08:41:26;;;;;;;17.00;11.40;;;;;;;15.31;100.00;155293.78;5049159;28;20441;-76
2021/06/06 08:44:04;;;;;;;15.33;10.30;;;;;;;15.32;100.00;155296.41;5072955;28;20811;-76
2021/06/06 08:46:44;;;;;;;17.37;11.50;;;;;;;15.29;100.00;155288.63;5063474;28;20920;-76
2021/06/06 08:49:21;;;;;;;13.40;11.10;;;;;;;15.36;100.00;155305.47;5055339;28;20904;-75
2021/06/06 08:52:07;;;;;;;15.67;11.43;;;;;;;15.48;100.00;155336.75;5055844;28;20443;-76
2021/06/06 08:54:48;;;;;;;15.10;11.50;;;;;;;15.49;100.00;155339.38;5056037;28;20548;-76
2021/06/06 08:57:26;;;;;;;19.50;12.10;;;;;;;15.42;100.00;155321.09;5089398;28;20444;-76
2021/06/06 09:00:06;;;;;;;18.17;12.30;;;;;;;15.52;100.00;155347.13;5073603;28;20455;-76
2021/06/06 09:02:47;;;;;;;17.90;13.27;;;;;;;15.52;100.00;155348.44;5070933;28;20925;-76
2021/06/06 09:05:28;;;;;;;19.70;14.10;;;;;;;15.45;100.00;155330.19;5058326;28;20444;-76
2021/06/06 09:08:05;;;;;;;18.77;13.83;;;;;;;15.40;100.00;155317.22;5053961;28;20456;-76
2021/06/06 09:10:44;;;;;;;20.03;13.20;;;;;;;15.44;100.00;155327.59;5087275;28;20452;-76
2021/06/06 09:13:18;;;;;;;17.30;12.60;;;;;;;15.42;100.00;155322.41;5061500;28;20486;-76
2021/06/06 09:16:06;;;;;;;19.53;13.03;;;;;;;15.39;100.00;155313.28;5073834;28;20434;-76
2021/06/06 09:18:46;;;;;;;20.57;14.33;;;;;;;15.38;100.00;155311.97;5073600;28;20558;-76
2021/06/06 09:21:23;;;;;;;16.90;12.70;;;;;;;15.43;100.00;155325.00;5056893;28;20454;-76
2021/06/06 09:24:09;;;;;;;21.93;14.07;;;;;;;15.47;100.00;155335.44;5073624;28;20903;-76
2021/06/06 09:26:44;;;;;;;17.27;13.17;;;;;;;15.59;100.00;155365.34;5072805;28;20485;-76
2021/06/06 09:29:22;;;;;;;14.80;11.53;;;;;;;15.63;100.00;155377.03;5072985;28;20543;-76
2021/06/06 09:32:05;;;;;;;15.47;12.10;;;;;;;15.65;100.00;155382.22;5057383;28;20457;-76
2021/06/06 09:34:51;;;;;;;16.17;10.37;;;;;;;15.65;100.00;155382.22;5066031;28;20472;-76
2021/06/06 09:37:29;;;;;;;13.93;10.20;;;;;;;15.67;100.00;155386.16;5063492;28;20449;-76
2021/06/06 09:40:10;;;;;;;16.40;12.50;;;;;;;15.70;100.00;155393.97;5073376;28;20450;-76
2021/06/06 09:42:49;;;;;;;15.80;12.43;;;;;;;15.72;100.00;155400.47;5072775;28;20457;-76
2021/06/06 09:45:26;;;;;;;14.27;12.27;;;;;;;15.79;100.00;155418.63;5071371;28;20622;-76
2021/06/06 09:48:05;;;;;;;14.27;12.20;;;;;;;15.75;100.00;155406.97;5068863;28;20449;-76
2021/06/06 09:50:42;;;;;;;18.77;13.67;;;;;;;15.63;100.00;155377.03;5068116;28;20454;-76
2021/06/06 09:53:22;;;;;;;16.93;11.40;;;;;;;15.65;100.00;155380.91;5063925;28;20937;-76
2021/06/06 09:56:05;;;;;;;19.53;12.27;;;;;;;15.71;100.00;155396.53;5072245;28;20510;-76
2021/06/06 09:58:41;;;;;;;16.87;12.97;;;;;;;15.81;100.00;155423.81;5073334;28;20806;-76
2021/06/06 10:01:25;;;;;;;17.10;13.63;;;;;;;15.72;100.00;155400.47;5069017;28;20837;-76
2021/06/06 10:04:03;;;;;;;14.40;12.00;;;;;;;15.69;100.00;155392.66;5060985;28;20450;-76
2021/06/06 10:06:39;;;;;;;17.27;14.43;;;;;;;15.74;100.00;155405.66;5101710;28;20436;-76
2021/06/06 10:09:25;;;;;;;19.00;14.33;;;;;;;15.75;100.00;155406.97;5072013;28;20439;-76
2021/06/06 10:12:06;;;;;;;21.30;15.20;;;;;;;15.92;100.00;155449.81;5069963;28;20548;-76
2021/06/06 10:14:43;;;;;;;20.83;15.47;;;;;;;15.87;100.00;155436.81;5073614;28;20460;-76
2021/06/06 10:17:24;;;;;;;21.93;16.27;;;;;;;15.84;100.00;155430.31;5072255;28;20442;-76
2021/06/06 10:20:10;;;;;;;21.53;15.83;;;;;;;15.94;100.00;155456.31;5051754;28;20532;-76
2021/06/06 10:22:51;;;;;;;20.93;16.30;;;;;;;15.85;100.00;155432.94;5050409;28;20461;-76
2021/06/06 10:25:45;;;;;;;24.70;17.90;;;;;;;15.84;100.00;155431.63;5066517;28;20463;-76
2021/06/06 10:28:24;;;;;;;20.60;17.10;;;;;;;15.86;100.00;155434.25;5061144;28;20446;-76
2021/06/06 10:31:05;;;;;;;23.10;18.10;;;;;;;15.88;100.00;155439.44;5052132;28;20784;-76
2021/06/06 10:33:42;;;;;;;22.83;18.10;;;;;;;15.87;100.00;155436.81;5053500;28;20445;-76
2021/06/06 10:36:20;;;;;;;27.63;18.43;;;;;;;15.91;100.00;155447.25;5053205;28;20430;-76
2021/06/06 10:38:55;;;;;;;24.63;18.60;;;;;;;15.84;100.00;155430.31;5052692;28;20446;-76
2021/06/06 10:41:37;;;;;;;26.60;19.33;;;;;;;15.87;100.00;155436.81;5053037;28;20442;-76
2021/06/06 10:44:18;;;;;;;24.53;19.50;;;;;;;15.80;100.00;155421.25;5036433;28;21010;-76
2021/06/06 10:46:54;;;;;;;26.20;19.00;;;;;;;15.86;100.00;155434.25;5052187;28;20437;-76
2021/06/06 10:49:31;;;;;;;23.47;18.30;;;;;;;15.91;100.00;155447.25;5058975;28;20457;-76
2021/06/06 10:52:08;;;;;;;26.50;19.50;;;;;;;15.92;100.00;155449.81;5052381;28;20458;-76
2021/06/06 10:54:46;;;;;;;28.53;22.40;;;;;;;15.88;100.00;155439.44;5071030;28;20476;-76
2021/06/06 10:57:37;;;;;;;28.20;21.53;;;;;;;15.85;100.00;155432.94;5075742;28;20457;-76
2021/06/06 11:00:25;;;;;;;31.20;21.87;;;;;;;15.95;100.00;155457.63;5072096;28;20445;-76
2021/06/06 11:03:03;;;;;;;28.97;20.83;;;;;;;15.96;100.00;155460.25;5072320;28;20446;-76
2021/06/06 11:05:45;;;;;;;28.50;21.07;;;;;;;15.95;100.00;155457.63;5071524;28;20468;-76
2021/06/06 11:08:47;;;;;;;24.83;21.50;;;;;;;16.04;100.00;155482.38;5065991;28;20791;-76
2021/06/06 11:11:26;;;;;;;34.43;23.60;;;;;;;15.96;100.00;155460.25;5039983;28;20801;-76
2021/06/06 11:14:16;;;;;;;32.33;24.27;;;;;;;15.99;100.00;155469.31;5071056;28;20976;-76
2021/06/06 11:16:53;;;;;;;29.33;21.13;;;;;;;16.01;100.00;155473.25;5071748;28;20450;-76
2021/06/06 11:19:33;;;;;;;30.63;22.03;;;;;;;16.08;100.00;155491.44;5060824;28;20517;-76
2021/06/06 11:22:15;;;;;;;34.90;25.77;;;;;;;15.95;100.00;155458.94;5051693;28;20446;-76
2021/06/06 11:24:53;;;;;;;32.57;22.40;;;;;;;16.01;100.00;155473.25;5061462;28;20439;-76
2021/06/06 11:27:32;;;;;;;36.03;26.07;;;;;;;16.09;100.00;155494.06;5036765;28;21033;-76
2021/06/06 11:30:36;;;;;;;38.00;27.47;;;;;;;16.11;100.00;155500.56;5050894;28;20439;-77
2021/06/06 11:33:14;;;;;;;40.23;28.20;;;;;;;16.01;100.00;155474.56;5051247;28;20544;-76
2021/06/06 11:35:51;;;;;;;34.10;25.20;;;;;;;16.02;100.00;155475.88;5064445;28;20467;-76
2021/06/06 11:38:36;;;;;;;40.47;27.07;;;;;;;15.97;100.00;155462.81;5062687;28;20441;-76
2021/06/06 11:41:29;;;;;;;37.40;26.80;;;;;;;15.94;100.00;155455.06;5069925;28;20449;-76
2021/06/06 11:44:21;;;;;;;38.80;27.37;;;;;;;15.98;100.00;155465.44;5070685;28;20433;-76
2021/06/06 11:47:00;;;;;;;36.70;26.17;;;;;;;15.94;100.00;155456.31;5050461;28;20450;-75
2021/06/06 11:49:46;;;;;;;38.07;27.10;;;;;;;15.98;100.00;155465.44;5050889;28;20529;-76
2021/06/06 11:52:27;;;;;;;38.17;26.73;;;;;;;15.97;100.00;155462.81;5051052;28;20459;-75
2021/06/06 11:55:07;;;;;;;41.80;28.37;;;;;;;16.12;100.00;155501.88;5075073;28;20990;-75
2021/06/06 11:57:49;;;;;;;40.37;27.90;;;;;;;16.15;100.00;155510.94;5069017;28;20453;-75
2021/06/06 12:00:29;;;;;;;41.00;28.53;;;;;;;16.08;100.00;155491.44;5050872;28;20506;-75
2021/06/06 12:03:12;;;;;;;43.27;29.53;;;;;;;16.07;100.00;155490.13;5050675;28;20439;-75